Time;durP1;ratioP1;P1;durP2;ratioP2;P2;SDS_P1;SDS_P2;PMS_P1;PMS_P2;Temp;Humidity;BMP_temperature;BMP_pressure;BME280_temperature;BME280_humidity;BME280_pressure;Samples;Min_cycle;Max_cycle;Signal;HPM_P1;HPM_P2
2022/08/03 00:01:22;;;;;;;;;;;20.60;99.90;;;;;;5056389;28;20024;-80
2022/08/03 00:03:48;;;;;;;;;;;20.50;99.90;;;;;;5059164;28;19924;-80
2022/08/03 00:06:15;;;;;;;;;;;20.40;99.90;;;;;;5054236;28;20435;-80
2022/08/03 00:08:42;;;;;;;;;;;20.50;99.90;;;;;;5058897;28;20399;-80
2022/08/03 00:11:08;;;;;;;;;;;20.50;99.90;;;;;;5058615;28;20019;-80
2022/08/03 00:13:35;;;;;;;;;;;20.50;99.90;;;;;;5055612;28;20027;-76
2022/08/03 00:16:02;;;;;;;;;;;20.50;99.90;;;;;;5057078;28;19925;-75
2022/08/03 00:18:30;;;;;;;;;;;20.50;99.90;;;;;;5058968;28;19931;-77
2022/08/03 00:20:56;;;;;;;;;;;20.50;99.90;;;;;;5057572;28;19939;-77
2022/08/03 00:23:23;;;;;;;;;;;20.50;99.90;;;;;;5056518;28;19924;-77
2022/08/03 00:25:50;;;;;;;;;;;20.50;99.90;;;;;;5056381;28;19933;-76
2022/08/03 00:28:16;;;;;;;;;;;20.50;99.90;;;;;;5057418;28;19978;-77
2022/08/03 00:30:43;;;;;;;;;;;20.50;99.90;;;;;;5055428;28;20536;-78
2022/08/03 00:33:10;;;;;;;;;;;20.40;99.90;;;;;;5058199;28;20019;-78
2022/08/03 00:35:38;;;;;;;;;;;20.40;99.90;;;;;;5058490;28;19936;-79
2022/08/03 00:38:05;;;;;;;;;;;20.40;99.90;;;;;;5059402;28;19971;-77
2022/08/03 00:40:31;;;;;;;;;;;20.30;99.90;;;;;;5058810;28;19959;-78
2022/08/03 00:43:00;;;;;;;;;;;20.30;99.90;;;;;;5054816;28;20314;-77
2022/08/03 00:45:27;;;;;;;;;;;20.20;99.90;;;;;;5055344;28;19964;-78
2022/08/03 00:47:54;;;;;;;;;;;20.20;99.90;;;;;;5058006;28;19924;-78
2022/08/03 00:50:22;;;;;;;;;;;20.10;99.90;;;;;;5061676;28;19956;-78
2022/08/03 00:52:51;;;;;;;;;;;20.10;99.90;;;;;;5060420;28;20384;-77
2022/08/03 00:55:18;;;;;;;;;;;20.10;99.90;;;;;;5058678;28;20383;-76
2022/08/03 00:57:45;;;;;;;;;;;20.00;99.90;;;;;;5064521;28;19979;-77
2022/08/03 01:00:14;;;;;;;;;;;19.90;99.90;;;;;;5066104;28;19990;-77
2022/08/03 01:02:41;;;;;;;;;;;;;;;;;;5060687;28;19925;-78
2022/08/03 01:05:08;;;;;;;;;;;;;;;;;;5061807;28;19939;-78
2022/08/03 01:07:35;;;;;;;;;;;;;;;;;;5062503;28;20015;-77
2022/08/03 01:10:02;;;;;;;;;;;;;;;;;;5063645;28;20370;-78
2022/08/03 01:12:29;;;;;;;;;;;;;;;;;;5060538;28;19924;-79
2022/08/03 01:14:56;;;;;;;;;;;;;;;;;;5061821;28;19967;-78
2022/08/03 01:17:24;;;;;;;;;;;;;;;;;;5057344;28;19978;-78
2022/08/03 01:19:50;;;;;;;;;;;;;;;;;;5058208;28;19924;-78
2022/08/03 01:22:17;;;;;;;;;;;;;;;;;;5058887;28;20400;-79
2022/08/03 01:24:50;;;;;;;;;;;20.00;99.90;;;;;;5062135;28;20683;-79
2022/08/03 01:27:18;;;;;;;;;;;19.50;99.90;;;;;;5058479;28;19929;-78
2022/08/03 01:30:00;;;;;;;;;;;19.50;99.90;;;;;;5056650;28;20412;-79
2022/08/03 01:32:31;;;;;;;;;;;19.50;99.90;;;;;;5057926;28;19940;-79
2022/08/03 01:35:00;;;;;;;;;;;19.50;99.90;;;;;;5061343;28;21790;-80
2022/08/03 01:37:31;;;;;;;;;;;19.50;99.90;;;;;;5057375;28;20028;-79
2022/08/03 01:40:00;;;;;;;;;;;19.40;99.90;;;;;;5059513;28;20022;-80
2022/08/03 01:42:29;;;;;;;;;;;19.40;99.90;;;;;;5067378;28;19971;-77
2022/08/03 01:44:56;;;;;;;;;;;;;;;;;;5071707;28;19983;-77
2022/08/03 01:47:24;;;;;;;;;;;19.30;99.90;;;;;;5060638;28;20008;-77
2022/08/03 01:49:53;;;;;;;;;;;19.30;99.90;;;;;;5058463;28;19933;-77
2022/08/03 01:52:20;;;;;;;;;;;19.30;99.90;;;;;;5058022;28;19932;-76
2022/08/03 01:54:49;;;;;;;;;;;19.30;99.90;;;;;;5061928;28;19942;-77
2022/08/03 01:57:16;;;;;;;;;;;19.20;99.90;;;;;;5057650;28;19956;-78
2022/08/03 01:59:43;;;;;;;;;;;;;;;;;;5056887;28;19933;-76
2022/08/03 02:02:11;;;;;;;;;;;19.20;99.90;;;;;;5056640;28;20019;-78
2022/08/03 02:04:39;;;;;;;;;;;18.80;99.90;;;;;;5059473;28;20446;-77
2022/08/03 02:07:07;;;;;;;;;;;19.00;99.90;;;;;;5060062;28;20311;-76
2022/08/03 02:09:36;;;;;;;;;;;19.10;99.90;;;;;;5060697;28;19936;-75
2022/08/03 02:12:04;;;;;;;;;;;19.00;99.90;;;;;;5061361;28;19931;-76
2022/08/03 02:14:31;;;;;;;;;;;19.00;99.90;;;;;;5054582;28;20363;-75
2022/08/03 02:16:58;;;;;;;;;;;19.00;99.90;;;;;;5057740;28;20015;-75
2022/08/03 02:19:25;;;;;;;;;;;18.90;99.90;;;;;;5060658;28;19974;-75
2022/08/03 02:21:53;;;;;;;;;;;18.90;99.90;;;;;;5059366;28;19931;-78
2022/08/03 02:24:21;;;;;;;;;;;18.90;99.90;;;;;;5061057;28;21566;-78
2022/08/03 02:26:48;;;;;;;;;;;18.90;99.90;;;;;;5061338;28;20276;-77
2022/08/03 02:29:18;;;;;;;;;;;18.90;99.90;;;;;;5058893;28;20039;-76
2022/08/03 02:31:46;;;;;;;;;;;18.90;99.90;;;;;;5060348;28;19960;-78
2022/08/03 02:34:14;;;;;;;;;;;18.90;99.90;;;;;;5061876;28;20020;-79
2022/08/03 02:36:41;;;;;;;;;;;18.90;99.90;;;;;;5058292;28;20019;-79
2022/08/03 02:39:10;;;;;;;;;;;18.90;99.90;;;;;;5057435;28;19935;-78
2022/08/03 02:41:47;;;;;;;;;;;18.90;99.90;;;;;;5057277;28;19939;-78
2022/08/03 02:44:14;;;;;;;;;;;18.90;99.90;;;;;;5056683;28;19943;-78
2022/08/03 02:46:43;;;;;;;;;;;18.90;99.90;;;;;;5058041;28;20051;-78
2022/08/03 02:49:10;;;;;;;;;;;18.80;99.90;;;;;;5057832;28;19928;-77
2022/08/03 02:51:39;;;;;;;;;;;18.80;99.90;;;;;;5053768;28;20034;-77
2022/08/03 02:54:07;;;;;;;;;;;18.80;99.90;;;;;;5060424;28;20023;-77
2022/08/03 02:56:34;;;;;;;;;;;18.80;99.90;;;;;;5058629;28;19924;-77
2022/08/03 02:59:02;;;;;;;;;;;18.80;99.90;;;;;;5062035;28;19925;-77
2022/08/03 03:01:30;;;;;;;;;;;18.80;99.90;;;;;;5060826;28;20023;-77
2022/08/03 03:03:57;;;;;;;;;;;18.80;99.90;;;;;;5059109;28;20023;-77
2022/08/03 03:06:25;;;;;;;;;;;18.80;99.90;;;;;;5057524;28;20391;-76
2022/08/03 03:08:52;;;;;;;;;;;18.80;99.90;;;;;;5060836;28;20014;-76
2022/08/03 03:11:20;;;;;;;;;;;18.70;99.90;;;;;;5059767;28;19928;-77
2022/08/03 03:13:48;;;;;;;;;;;18.70;99.90;;;;;;5060202;28;19968;-77
2022/08/03 03:16:16;;;;;;;;;;;18.70;99.90;;;;;;5062271;28;20010;-77
2022/08/03 03:18:44;;;;;;;;;;;18.70;99.90;;;;;;5057810;28;20035;-76
2022/08/03 03:21:11;;;;;;;;;;;18.60;99.90;;;;;;5060707;28;20218;-76
2022/08/03 03:23:39;;;;;;;;;;;18.60;99.90;;;;;;5057587;28;19924;-76
2022/08/03 03:26:06;;;;;;;;;;;18.60;99.90;;;;;;5055384;28;19948;-76
2022/08/03 03:28:33;;;;;;;;;;;18.60;99.90;;;;;;5058319;28;20593;-76
2022/08/03 03:31:00;;;;;;;;;;;18.60;99.90;;;;;;5058308;28;19939;-77
2022/08/03 03:33:28;;;;;;;;;;;18.60;99.90;;;;;;5056148;28;20470;-76
2022/08/03 03:35:55;;;;;;;;;;;18.60;99.90;;;;;;5065623;28;19959;-76
2022/08/03 03:38:22;;;;;;;;;;;18.50;99.90;;;;;;5057423;28;19947;-75
2022/08/03 03:40:49;;;;;;;;;;;18.50;99.90;;;;;;5062281;28;19925;-75
2022/08/03 03:43:17;;;;;;;;;;;18.60;99.90;;;;;;5069850;28;19928;-76
2022/08/03 03:45:44;;;;;;;;;;;18.50;99.90;;;;;;5070787;28;19924;-77
2022/08/03 03:48:11;;;;;;;;;;;18.50;99.90;;;;;;5064665;28;19963;-77
2022/08/03 03:50:40;;;;;;;;;;;18.40;99.90;;;;;;5059829;28;19955;-76
2022/08/03 03:53:09;;;;;;;;;;;18.40;99.90;;;;;;5057541;28;19931;-78
2022/08/03 03:55:35;;;;;;;;;;;18.30;99.90;;;;;;5055309;28;20451;-77
2022/08/03 03:58:02;;;;;;;;;;;18.30;99.90;;;;;;5056658;28;19954;-77
2022/08/03 04:00:29;;;;;;;;;;;18.30;99.90;;;;;;5058278;28;19932;-76
2022/08/03 04:02:56;;;;;;;;;;;18.20;99.90;;;;;;5054244;28;19932;-77
2022/08/03 04:10:59;;;;;;;;;;;18.20;99.90;;;;;;5058884;28;19931;-74
2022/08/03 04:13:27;;;;;;;;;;;18.20;99.90;;;;;;5053082;28;19968;-76
2022/08/03 04:15:55;;;;;;;;;;;18.20;99.90;;;;;;5054332;28;20027;-75
2022/08/03 04:18:22;;;;;;;;;;;18.20;99.90;;;;;;5058619;28;19928;-74
2022/08/03 04:20:49;;;;;;;;;;;18.20;99.90;;;;;;5059437;28;20011;-76
2022/08/03 04:23:19;;;;;;;;;;;18.20;99.90;;;;;;5055973;28;19925;-74
2022/08/03 04:25:49;;;;;;;;;;;18.20;99.90;;;;;;5057607;28;20011;-75
2022/08/03 04:28:16;;;;;;;;;;;;;;;;;;5059825;28;19985;-75
2022/08/03 04:30:46;;;;;;;;;;;;;;;;;;5061347;28;20018;-75
2022/08/03 04:33:13;;;;;;;;;;;;;;;;;;5058892;28;20315;-75
2022/08/03 04:35:41;;;;;;;;;;;18.10;99.90;;;;;;5062560;28;20023;-75
2022/08/03 04:38:08;;;;;;;;;;;18.10;99.90;;;;;;5060940;28;20023;-73
2022/08/03 04:40:39;;;;;;;;;;;18.10;99.90;;;;;;5061361;28;20019;-74
2022/08/03 04:43:07;;;;;;;;;;;18.20;99.90;;;;;;5059240;28;19935;-73
2022/08/03 04:45:34;;;;;;;;;;;;;;;;;;5056517;28;20366;-73
2022/08/03 04:48:01;;;;;;;;;;;;;;;;;;5058678;28;20296;-74
2022/08/03 04:50:28;;;;;;;;;;;;;;;;;;5065675;28;20010;-75
2022/08/03 04:52:55;;;;;;;;;;;;;;;;;;5063019;28;19924;-73
2022/08/03 04:55:22;;;;;;;;;;;;;;;;;;5060233;28;20027;-74
2022/08/03 04:57:49;;;;;;;;;;;;;;;;;;5056750;28;19933;-70
2022/08/03 05:00:16;;;;;;;;;;;;;;;;;;5057529;28;20296;-73
2022/08/03 05:02:43;;;;;;;;;;;;;;;;;;5057166;28;20334;-74
2022/08/03 05:05:10;;;;;;;;;;;;;;;;;;5053114;28;20396;-74
2022/08/03 05:07:37;;;;;;;;;;;;;;;;;;5052011;28;20715;-73
2022/08/03 05:10:04;;;;;;;;;;;;;;;;;;5050648;28;20015;-74
2022/08/03 05:12:31;;;;;;;;;;;;;;;;;;5056811;28;19955;-73
2022/08/03 05:14:58;;;;;;;;;;;;;;;;;;5051207;28;20376;-73
2022/08/03 05:17:25;;;;;;;;;;;;;;;;;;5053332;28;20277;-73
2022/08/03 05:19:52;;;;;;;;;;;;;;;;;;5049522;28;20873;-73
2022/08/03 05:22:19;;;;;;;;;;;;;;;;;;5047656;28;21711;-73
2022/08/03 05:24:46;;;;;;;;;;;;;;;;;;5052116;28;19963;-73
2022/08/03 05:27:18;;;;;;;;;;;;;;;;;;5057705;28;20021;-73
2022/08/03 05:29:44;;;;;;;;;;;;;;;;;;5054398;28;20412;-74
2022/08/03 05:32:11;;;;;;;;;;;;;;;;;;5059008;28;19971;-74
2022/08/03 05:34:38;;;;;;;;;;;;;;;;;;5054855;28;20035;-74
2022/08/03 05:37:06;;;;;;;;;;;;;;;;;;5061623;28;19929;-75
2022/08/03 05:39:33;;;;;;;;;;;;;;;;;;5062079;28;19936;-74
2022/08/03 05:42:00;;;;;;;;;;;;;;;;;;5058516;28;20376;-74
2022/08/03 05:44:27;;;;;;;;;;;;;;;;;;5061647;28;20033;-75
2022/08/03 05:46:54;;;;;;;;;;;;;;;;;;5062894;28;20383;-75
2022/08/03 05:49:21;;;;;;;;;;;;;;;;;;5061896;28;20299;-74
2022/08/03 05:51:48;;;;;;;;;;;;;;;;;;5068219;28;19991;-75
2022/08/03 05:54:15;;;;;;;;;;;;;;;;;;5060664;28;20306;-74
2022/08/03 05:56:42;;;;;;;;;;;;;;;;;;5061863;28;20375;-74
2022/08/03 05:59:09;;;;;;;;;;;;;;;;;;5054343;28;19960;-74
2022/08/03 06:01:36;;;;;;;;;;;;;;;;;;5062923;28;20018;-74
2022/08/03 06:04:03;;;;;;;;;;;;;;;;;;5060947;28;19933;-74
2022/08/03 06:06:29;;;;;;;;;;;;;;;;;;5059731;28;20079;-74
2022/08/03 06:08:56;;;;;;;;;;;;;;;;;;5058158;28;20043;-74
2022/08/03 06:11:24;;;;;;;;;;;;;;;;;;5060210;28;20394;-75
2022/08/03 06:13:51;;;;;;;;;;;;;;;;;;5059069;28;19925;-75
2022/08/03 06:16:18;;;;;;;;;;;;;;;;;;5060047;28;20361;-75
2022/08/03 06:18:45;;;;;;;;;;;;;;;;;;5071408;28;20016;-75
2022/08/03 06:21:12;;;;;;;;;;;;;;;;;;5063826;28;19943;-75
2022/08/03 06:23:39;;;;;;;;;;;;;;;;;;5061633;28;19924;-75
2022/08/03 06:26:06;;;;;;;;;;;;;;;;;;5057881;28;19933;-75
2022/08/03 06:28:33;;;;;;;;;;;;;;;;;;5059808;28;20024;-75
2022/08/03 06:30:59;;;;;;;;;;;;;;;;;;5065849;28;19935;-75
2022/08/03 06:33:27;;;;;;;;;;;;;;;;;;5067599;28;19946;-74
2022/08/03 06:35:53;;;;;;;;;;;;;;;;;;5070914;28;19931;-74
2022/08/03 06:38:20;;;;;;;;;;;;;;;;;;5062841;28;20434;-73
2022/08/03 06:40:47;;;;;;;;;;;;;;;;;;5066179;28;21731;-73
2022/08/03 06:43:15;;;;;;;;;;;;;;;;;;5062870;28;20548;-73
2022/08/03 06:45:41;;;;;;;;;;;;;;;;;;5069738;28;19930;-74
2022/08/03 06:48:08;;;;;;;;;;;;;;;;;;5060006;28;20372;-71
2022/08/03 06:50:35;;;;;;;;;;;;;;;;;;5046673;28;20376;-71
2022/08/03 06:53:02;;;;;;;;;;;;;;;;;;5054008;28;20374;-72
2022/08/03 06:55:29;;;;;;;;;;;;;;;;;;5059338;28;20012;-73
2022/08/03 06:57:56;;;;;;;;;;;;;;;;;;5056820;28;19932;-73
2022/08/03 07:00:23;;;;;;;;;;;;;;;;;;5059476;28;19966;-74
2022/08/03 07:02:50;;;;;;;;;;;;;;;;;;5062189;28;19971;-73
2022/08/03 07:05:17;;;;;;;;;;;;;;;;;;5063882;28;20359;-74
2022/08/03 07:07:44;;;;;;;;;;;;;;;;;;5056884;28;19984;-74
2022/08/03 07:10:11;;;;;;;;;;;;;;;;;;5057989;28;19924;-73
2022/08/03 07:12:40;;;;;;;;;;;31.40;74.90;;;;;;5055010;28;20054;-72
2022/08/03 07:15:08;;;;;;;;;;;32.00;74.70;;;;;;5059266;28;20467;-74
2022/08/03 07:17:35;;;;;;;;;;;31.80;71.20;;;;;;5059302;28;19983;-73
2022/08/03 07:20:03;;;;;;;;;;;30.90;72.80;;;;;;5064783;28;19924;-74
2022/08/03 07:22:29;;;;;;;;;;;31.00;72.90;;;;;;5064294;28;19928;-73
2022/08/03 07:24:56;;;;;;;;;;;31.60;67.70;;;;;;5060219;28;20015;-73
2022/08/03 07:27:25;;;;;;;;;;;31.50;88.70;;;;;;5061440;28;19950;-73
2022/08/03 07:29:53;;;;;;;;;;;32.40;68.90;;;;;;5066021;28;19955;-73
2022/08/03 07:32:20;;;;;;;;;;;;;;;;;;5068604;28;20291;-72
2022/08/03 07:34:47;;;;;;;;;;;32.90;46.50;;;;;;5067567;28;19928;-73
2022/08/03 07:37:14;;;;;;;;;;;32.80;46.70;;;;;;5067398;28;19967;-71
2022/08/03 07:39:40;;;;;;;;;;;32.80;45.80;;;;;;5060907;28;19956;-72
2022/08/03 07:42:07;;;;;;;;;;;32.50;44.80;;;;;;5056409;28;20014;-71
2022/08/03 07:44:34;;;;;;;;;;;32.90;44.90;;;;;;5058393;28;20420;-72
2022/08/03 07:47:02;;;;;;;;;;;33.60;43.40;;;;;;5049529;28;19952;-71
2022/08/03 07:49:29;;;;;;;;;;;34.00;41.00;;;;;;5050380;28;20176;-70
2022/08/03 07:54:36;;;;;;;;;;;34.00;37.90;;;;;;5055836;28;19950;-72
2022/08/03 07:57:03;;;;;;;;;;;33.80;38.10;;;;;;5059693;28;20383;-72
2022/08/03 07:59:29;;;;;;;;;;;34.30;36.40;;;;;;5049380;28;19925;-72
2022/08/03 08:01:56;;;;;;;;;;;;;;;;;;5059004;28;20022;-73
2022/08/03 08:04:23;;;;;;;;;;;;;;;;;;5066447;28;19967;-74
2022/08/03 08:06:50;;;;;;;;;;;;;;;;;;5070861;28;19963;-74
2022/08/03 08:09:17;;;;;;;;;;;;;;;;;;5067654;28;19986;-72
2022/08/03 08:11:44;;;;;;;;;;;;;;;;;;5069524;28;19937;-74
2022/08/03 08:14:11;;;;;;;;;;;;;;;;;;5069403;28;20442;-74
2022/08/03 08:16:39;;;;;;;;;;;34.40;78.30;;;;;;5059595;28;20015;-74
2022/08/03 08:19:06;;;;;;;;;;;34.70;71.50;;;;;;5051813;28;19978;-75
2022/08/03 08:21:33;;;;;;;;;;;;;;;;;;5058060;28;20431;-75
2022/08/03 08:24:00;;;;;;;;;;;;;;;;;;5064334;28;19932;-74
2022/08/03 08:26:27;;;;;;;;;;;;;;;;;;5055561;28;20066;-74
2022/08/03 08:28:54;;;;;;;;;;;;;;;;;;5048782;28;19924;-74
2022/08/03 08:31:21;;;;;;;;;;;;;;;;;;5051900;28;20016;-74
2022/08/03 08:33:48;;;;;;;;;;;;;;;;;;5058157;28;19925;-73
2022/08/03 08:36:15;;;;;;;;;;;;;;;;;;5061060;28;20025;-74
2022/08/03 08:38:43;;;;;;;;;;;;;;;;;;5052958;28;19928;-74
2022/08/03 08:41:10;;;;;;;;;;;;;;;;;;5059050;28;20397;-74
2022/08/03 08:43:37;;;;;;;;;;;;;;;;;;5061475;28;19990;-74
2022/08/03 08:46:04;;;;;;;;;;;;;;;;;;5059545;28;19940;-72
2022/08/03 08:48:31;;;;;;;;;;;;;;;;;;5066020;28;20737;-75
2022/08/03 08:50:58;;;;;;;;;;;;;;;;;;5058974;28;19925;-76
2022/08/03 08:53:25;;;;;;;;;;;;;;;;;;5063985;28;19925;-76
2022/08/03 08:55:52;;;;;;;;;;;;;;;;;;5059940;28;19924;-76
2022/08/03 08:58:19;;;;;;;;;;;;;;;;;;5060554;28;19959;-76
2022/08/03 09:00:47;;;;;;;;;;;;;;;;;;5057669;28;19933;-76
2022/08/03 09:03:15;;;;;;;;;;;;;;;;;;5056271;28;21496;-78
2022/08/03 09:05:42;;;;;;;;;;;;;;;;;;5054040;28;20027;-76
2022/08/03 09:08:09;;;;;;;;;;;;;;;;;;5056530;28;20002;-74
2022/08/03 09:10:36;;;;;;;;;;;;;;;;;;5053138;28;19929;-74
2022/08/03 09:13:03;;;;;;;;;;;;;;;;;;5057318;28;19924;-75
2022/08/03 09:15:30;;;;;;;;;;;;;;;;;;5058204;28;19928;-76
2022/08/03 09:17:57;;;;;;;;;;;;;;;;;;5054769;28;20395;-75
2022/08/03 09:20:24;;;;;;;;;;;;;;;;;;5056747;28;20292;-74
2022/08/03 09:22:51;;;;;;;;;;;;;;;;;;5056593;28;19928;-76
2022/08/03 09:25:18;;;;;;;;;;;;;;;;;;5059944;28;19930;-77
2022/08/03 09:27:45;;;;;;;;;;;;;;;;;;5059341;28;19970;-75
2022/08/03 09:30:12;;;;;;;;;;;;;;;;;;5062430;28;20332;-74
2022/08/03 09:32:39;;;;;;;;;;;;;;;;;;5061736;28;19932;-76
2022/08/03 09:35:06;;;;;;;;;;;;;;;;;;5055000;28;19959;-73
2022/08/03 09:37:33;;;;;;;;;;;;;;;;;;5059716;28;19932;-76
2022/08/03 09:40:00;;;;;;;;;;;;;;;;;;5058554;28;19929;-75
2022/08/03 09:42:27;;;;;;;;;;;;;;;;;;5059315;28;19924;-75
2022/08/03 09:44:54;;;;;;;;;;;;;;;;;;5059517;28;19964;-76
2022/08/03 09:47:21;;;;;;;;;;;;;;;;;;5057529;28;19940;-76
2022/08/03 09:49:48;;;;;;;;;;;;;;;;;;5062721;28;19979;-75
2022/08/03 09:52:17;;;;;;;;;;;;;;;;;;5061578;28;19967;-74
2022/08/03 09:54:44;;;;;;;;;;;;;;;;;;5056699;28;19932;-75
2022/08/03 09:57:11;;;;;;;;;;;;;;;;;;5061601;28;19975;-74
2022/08/03 09:59:40;;;;;;;;;;;;;;;;;;5061580;28;19964;-73
2022/08/03 10:02:07;;;;;;;;;;;;;;;;;;5062366;28;20589;-73
2022/08/03 10:04:34;;;;;;;;;;;;;;;;;;5058701;28;19936;-75
2022/08/03 10:07:01;;;;;;;;;;;;;;;;;;5056991;28;19929;-74
2022/08/03 10:09:28;;;;;;;;;;;;;;;;;;5055978;28;19950;-73
2022/08/03 10:11:55;;;;;;;;;;;;;;;;;;5053810;28;19972;-73
2022/08/03 10:14:22;;;;;;;;;;;;;;;;;;5062203;28;20102;-74
2022/08/03 10:16:49;;;;;;;;;;;;;;;;;;5057117;28;19939;-74
2022/08/03 10:19:16;;;;;;;;;;;;;;;;;;5057400;28;19939;-74
2022/08/03 10:21:43;;;;;;;;;;;;;;;;;;5060986;28;19928;-74
2022/08/03 10:24:10;;;;;;;;;;;;;;;;;;5058567;28;20023;-66
2022/08/03 10:26:37;;;;;;;;;;;;;;;;;;5057871;28;19932;-73
2022/08/03 10:29:06;;;;;;;;;;;;;;;;;;5056797;28;20032;-74
2022/08/03 10:31:33;;;;;;;;;;;;;;;;;;5054515;28;19979;-75
2022/08/03 10:34:00;;;;;;;;;;;;;;;;;;5060902;28;19979;-74
2022/08/03 10:36:27;;;;;;;;;;;;;;;;;;5059771;28;20007;-74
2022/08/03 10:38:55;;;;;;;;;;;;;;;;;;5062832;28;20015;-75
2022/08/03 10:41:22;;;;;;;;;;;;;;;;;;5062522;28;20454;-74
2022/08/03 10:43:49;;;;;;;;;;;;;;;;;;5054004;28;19932;-74
2022/08/03 10:46:16;;;;;;;;;;;;;;;;;;5052153;28;19933;-74
2022/08/03 10:48:43;;;;;;;;;;;;;;;;;;5054564;28;20339;-74
2022/08/03 10:51:10;;;;;;;;;;;;;;;;;;5057083;28;19930;-74
2022/08/03 10:53:37;;;;;;;;;;;;;;;;;;5057628;28;20295;-74
2022/08/03 10:58:52;;;;;;;;;;;;;;;;;;5056632;28;20310;-74
2022/08/03 11:01:19;;;;;;;;;;;;;;;;;;5053176;28;20392;-74
2022/08/03 11:03:46;;;;;;;;;;;;;;;;;;5056933;28;20430;-75
2022/08/03 11:06:13;;;;;;;;;;;;;;;;;;5058223;28;19948;-74
2022/08/03 11:08:40;;;;;;;;;;;;;;;;;;5058476;28;19924;-75
2022/08/03 11:11:09;;;;;;;;;;;;;;;;;;5056306;28;20332;-76
2022/08/03 11:13:36;;;;;;;;;;;;;;;;;;5054368;28;20015;-75
2022/08/03 11:16:03;;;;;;;;;;;;;;;;;;5059513;28;19924;-74
2022/08/03 11:18:30;;;;;;;;;;;;;;;;;;5061070;28;20007;-75
2022/08/03 11:20:57;;;;;;;;;;;;;;;;;;5059444;28;19976;-76
2022/08/03 11:23:24;;;;;;;;;;;;;;;;;;5054453;28;20651;-73
2022/08/03 11:25:51;;;;;;;;;;;;;;;;;;5057716;28;19975;-76
2022/08/03 11:28:18;;;;;;;;;;;;;;;;;;5056512;28;19959;-75
2022/08/03 11:30:45;;;;;;;;;;;;;;;;;;5057272;28;20019;-74
2022/08/03 11:33:12;;;;;;;;;;;;;;;;;;5057455;28;20023;-78
2022/08/03 11:35:44;;;;;;;;;;;;;;;;;;5052267;28;19924;-79
2022/08/03 11:38:11;;;;;;;;;;;;;;;;;;5058276;28;19931;-76
2022/08/03 11:40:38;;;;;;;;;;;;;;;;;;5061795;28;20024;-75
2022/08/03 11:43:05;;;;;;;;;;;;;;;;;;5062910;28;19951;-76
2022/08/03 11:45:33;;;;;;;;;;;;;;;;;;5064191;28;19932;-77
2022/08/03 11:48:00;;;;;;;;;;;;;;;;;;5058854;28;19928;-76
2022/08/03 11:50:27;;;;;;;;;;;;;;;;;;5064570;28;20389;-76
2022/08/03 11:52:54;;;;;;;;;;;;;;;;;;5053352;28;20039;-76
2022/08/03 11:55:25;;;;;;;;;;;;;;;;;;5051031;28;19947;-78
2022/08/03 11:57:52;;;;;;;;;;;;;;;;;;5050952;28;19931;-76
2022/08/03 12:00:20;;;;;;;;;;;;;;;;;;5060672;28;19971;-77
2022/08/03 12:02:47;;;;;;;;;;;;;;;;;;5059899;28;19954;-75
2022/08/03 12:05:14;;;;;;;;;;;;;;;;;;5053098;28;19962;-75
2022/08/03 12:07:41;;;;;;;;;;;;;;;;;;5065373;28;19970;-76
2022/08/03 12:10:08;;;;;;;;;;;;;;;;;;5058669;28;20461;-75
2022/08/03 12:12:35;;;;;;;;;;;;;;;;;;5060531;28;19925;-76
2022/08/03 12:15:04;;;;;;;;;;;;;;;;;;5061645;28;19939;-76
2022/08/03 12:17:31;;;;;;;;;;;;;;;;;;5053620;28;20008;-75
2022/08/03 12:19:58;;;;;;;;;;;;;;;;;;5057933;28;20011;-75
2022/08/03 12:22:29;;;;;;;;;;;;;;;;;;5060828;28;20015;-76
2022/08/03 12:24:59;;;;;;;;;;;;;;;;;;5060119;28;19931;-76
2022/08/03 12:27:28;;;;;;;;;;;;;;;;;;5058504;28;20405;-75
2022/08/03 12:29:58;;;;;;;;;;;;;;;;;;5063459;28;19931;-74
2022/08/03 12:32:28;;;;;;;;;;;;;;;;;;5051473;28;19925;-74
2022/08/03 12:34:59;;;;;;;;;;;;;;;;;;5052213;28;19964;-74
2022/08/03 12:37:27;;;;;;;;;;;;;;;;;;5057016;28;20446;-74
2022/08/03 12:40:00;;;;;;;;;;;;;;;;;;5055029;28;19979;-74
2022/08/03 12:42:27;;;;;;;;;;;;;;;;;;5056601;28;20399;-76
2022/08/03 12:44:59;;;;;;;;;;;;;;;;;;5061748;28;19924;-77
2022/08/03 12:47:26;;;;;;;;;;;;;;;;;;5057051;28;20689;-74
2022/08/03 12:49:53;;;;;;;;;;;;;;;;;;5065726;28;19971;-75
2022/08/03 12:52:20;;;;;;;;;;;;;;;;;;5058590;28;19925;-76
2022/08/03 12:54:48;;;;;;;;;;;;;;;;;;5062186;28;20004;-77
2022/08/03 12:57:15;;;;;;;;;;;;;;;;;;5058531;28;19963;-76
2022/08/03 12:59:44;;;;;;;;;;;;;;;;;;5051896;28;20387;-75
2022/08/03 13:02:12;;;;;;;;;;;;;;;;;;5056138;28;19960;-76
2022/08/03 13:04:39;;;;;;;;;;;;;;;;;;5059892;28;19944;-76
2022/08/03 13:07:07;;;;;;;;;;;;;;;;;;5053910;28;19971;-76
2022/08/03 13:09:34;;;;;;;;;;;;;;;;;;5066793;28;19931;-75
2022/08/03 13:12:03;;;;;;;;;;;;;;;;;;5057907;28;20345;-76
2022/08/03 13:14:32;;;;;;;;;;;;;;;;;;5059403;28;19954;-76
2022/08/03 13:16:59;;;;;;;;;;;;;;;;;;5064632;28;20441;-76
2022/08/03 13:19:28;;;;;;;;;;;;;;;;;;5066768;28;19989;-76
2022/08/03 13:21:56;;;;;;;;;;;;;;;;;;5053009;28;20461;-78
2022/08/03 13:24:24;;;;;;;;;;;;;;;;;;5059361;28;19925;-77
2022/08/03 13:26:51;;;;;;;;;;;;;;;;;;5062202;28;19924;-77
2022/08/03 13:29:18;;;;;;;;;;;;;;;;;;5064771;28;19929;-76
2022/08/03 13:31:45;;;;;;;;;;;;;;;;;;5060844;28;20334;-75
2022/08/03 13:34:12;;;;;;;;;;;;;;;;;;5059530;28;19936;-77
2022/08/03 13:36:39;;;;;;;;;;;;;;;;;;5056552;28;20307;-76
2022/08/03 13:39:18;;;;;;;;;;;;;;;;;;5059702;28;19932;-76
2022/08/03 13:41:45;;;;;;;;;;;;;;;;;;5058425;28;20019;-76
2022/08/03 13:44:17;;;;;;;;;;;;;;;;;;5060631;28;19943;-75
2022/08/03 13:46:45;;;;;;;;;;;;;;;;;;5061942;28;19943;-76
2022/08/03 13:49:12;;;;;;;;;;;;;;;;;;5061472;28;19928;-75
2022/08/03 13:51:39;;;;;;;;;;;;;;;;;;5059605;28;19932;-76
2022/08/03 13:54:06;;;;;;;;;;;;;;;;;;5058136;28;20007;-75
2022/08/03 13:56:33;;;;;;;;;;;;;;;;;;5052857;28;19928;-77
2022/08/03 13:59:00;;;;;;;;;;;;;;;;;;5052807;28;20011;-79
2022/08/03 14:01:27;;;;;;;;;;;;;;;;;;5058233;28;19968;-78
2022/08/03 14:03:55;;;;;;;;;;;;;;;;;;5052339;28;20047;-77
2022/08/03 14:06:23;;;;;;;;;;;;;;;;;;5053677;28;19928;-79
2022/08/03 14:08:50;;;;;;;;;;;;;;;;;;5050603;28;20358;-78
2022/08/03 14:11:16;;;;;;;;;;;;;;;;;;5051133;28;20418;-77
2022/08/03 14:13:43;;;;;;;;;;;;;;;;;;5054440;28;20022;-79
2022/08/03 14:16:10;;;;;;;;;;;;;;;;;;5054178;28;19979;-77
2022/08/03 14:18:37;;;;;;;;;;;;;;;;;;5066911;28;20367;-78
2022/08/03 14:21:04;;;;;;;;;;;;;;;;;;5060518;28;20004;-78
2022/08/03 14:23:31;;;;;;;;;;;;;;;;;;5051409;28;19929;-77
2022/08/03 14:25:58;;;;;;;;;;;;;;;;;;5051072;28;20025;-79
2022/08/03 14:28:25;;;;;;;;;;;;;;;;;;5053283;28;19924;-77
2022/08/03 14:30:52;;;;;;;;;;;;;;;;;;5055911;28;19936;-77
2022/08/03 14:33:19;;;;;;;;;;;;;;;;;;5057193;28;20015;-77
2022/08/03 14:35:46;;;;;;;;;;;;;;;;;;5056220;28;19924;-78
2022/08/03 14:38:13;;;;;;;;;;;;;;;;;;5061222;28;19972;-78
2022/08/03 14:40:41;;;;;;;;;;;;;;;;;;5058179;28;19924;-78
2022/08/03 14:43:08;;;;;;;;;;;;;;;;;;5060744;28;19978;-79
2022/08/03 14:45:35;;;;;;;;;;;;;;;;;;5057763;28;19925;-78
2022/08/03 14:48:03;;;;;;;;;;;;;;;;;;5057719;28;20023;-77
2022/08/03 14:50:30;;;;;;;;;;;;;;;;;;5058646;28;19931;-78
2022/08/03 14:52:57;;;;;;;;;;;;;;;;;;5058229;28;20020;-78
2022/08/03 14:55:24;;;;;;;;;;;;;;;;;;5059574;28;20007;-78
2022/08/03 14:57:51;;;;;;;;;;;;;;;;;;5058094;28;19935;-78
2022/08/03 15:00:18;;;;;;;;;;;;;;;;;;5058488;28;20391;-78
2022/08/03 15:02:45;;;;;;;;;;;;;;;;;;5057061;28;20664;-78
2022/08/03 15:05:13;;;;;;;;;;;;;;;;;;5056435;28;20019;-77
2022/08/03 15:07:40;;;;;;;;;;;;;;;;;;5057609;28;19939;-78
2022/08/03 15:10:07;;;;;;;;;;;;;;;;;;5058145;28;19931;-78
2022/08/03 15:12:34;;;;;;;;;;;;;;;;;;5062867;28;19999;-79
2022/08/03 15:15:01;;;;;;;;;;;;;;;;;;5063513;28;19925;-79
2022/08/03 15:17:28;;;;;;;;;;;;;;;;;;5059752;28;19982;-79
2022/08/03 15:19:55;;;;;;;;;;;;;;;;;;5054320;28;19930;-78
2022/08/03 15:22:22;;;;;;;;;;;;;;;;;;5047309;28;19932;-78
2022/08/03 15:24:49;;;;;;;;;;;;;;;;;;5049743;28;19925;-80
2022/08/03 15:27:16;;;;;;;;;;;;;;;;;;5050875;28;20011;-78
2022/08/03 15:29:43;;;;;;;;;;;;;;;;;;5054153;28;20023;-78
2022/08/03 15:32:10;;;;;;;;;;;;;;;;;;5058567;28;19933;-78
2022/08/03 15:34:37;;;;;;;;;;;;;;;;;;5055236;28;20015;-78
2022/08/03 15:37:04;;;;;;;;;;;;;;;;;;5052230;28;19976;-78
2022/08/03 15:39:31;;;;;;;;;;;;;;;;;;5058939;28;19929;-74
2022/08/03 15:41:58;;;;;;;;;;;;;;;;;;5055707;28;20344;-75
2022/08/03 15:44:25;;;;;;;;;;;;;;;;;;5062273;28;19931;-79
2022/08/03 15:46:52;;;;;;;;;;;;;;;;;;5063519;28;19964;-78
2022/08/03 15:49:20;;;;;;;;;;;;;;;;;;5065257;28;19978;-78
2022/08/03 15:51:47;;;;;;;;;;;;;;;;;;5058306;28;19924;-79
2022/08/03 15:54:13;;;;;;;;;;;;;;;;;;5054424;28;20456;-78
2022/08/03 15:56:44;;;;;;;;;;;;;;;;;;5060200;28;20007;-78
2022/08/03 15:59:11;;;;;;;;;;;;;;;;;;5065142;28;20363;-78
2022/08/03 16:01:38;;;;;;;;;;;;;;;;;;5058690;28;19971;-77
2022/08/03 16:04:05;;;;;;;;;;;;;;;;;;5058685;28;20041;-78
2022/08/03 16:06:32;;;;;;;;;;;;;;;;;;5062486;28;20257;-77